Time;durP1;ratioP1;P1;durP2;ratioP2;P2;SDS_P1;SDS_P2;PMS_P1;PMS_P2;Temp;Humidity;BMP_temperature;BMP_pressure;BME280_temperature;BME280_humidity;BME280_pressure;Samples;Min_cycle;Max_cycle;Signal;HPM_P1;HPM_P2
2021/10/23 00:01:55;;;;;;;9.73;7.80;;;11.40;99.90;;;;;;5099021;28;20179;-81
2021/10/23 00:04:20;;;;;;;12.73;8.10;;;11.20;99.90;;;;;;5114201;28;21400;-80
2021/10/23 00:06:47;;;;;;;12.00;8.00;;;11.20;99.90;;;;;;5113490;28;20426;-80
2021/10/23 00:09:12;;;;;;;11.07;8.40;;;11.10;99.90;;;;;;5113792;28;20198;-80
2021/10/23 00:11:38;;;;;;;14.50;9.37;;;11.00;99.90;;;;;;5095238;28;20569;-81
2021/10/23 00:14:04;;;;;;;10.83;8.37;;;11.00;99.90;;;;;;5094449;28;20184;-80
2021/10/23 00:16:30;;;;;;;11.20;8.10;;;10.80;99.90;;;;;;5093727;28;20722;-81
2021/10/23 00:18:56;;;;;;;14.30;9.03;;;10.80;99.90;;;;;;5095089;28;20644;-79
2021/10/23 00:21:21;;;;;;;11.37;8.73;;;10.70;99.90;;;;;;5112862;28;20209;-80
2021/10/23 00:23:47;;;;;;;12.33;8.43;;;10.70;99.90;;;;;;5112823;28;20179;-79
2021/10/23 00:26:13;;;;;;;13.70;9.43;;;10.70;99.90;;;;;;5113272;28;20559;-80
2021/10/23 00:28:40;;;;;;;11.77;9.97;;;10.90;99.90;;;;;;5094944;28;20178;-79
2021/10/23 00:31:06;;;;;;;12.97;9.60;;;10.90;99.90;;;;;;5095053;28;20175;-79
2021/10/23 00:33:33;;;;;;;12.87;9.83;;;11.00;99.90;;;;;;5113305;28;20267;-80
2021/10/23 00:35:59;;;;;;;15.40;10.30;;;11.10;99.90;;;;;;5095444;28;20539;-79
2021/10/23 00:38:24;;;;;;;12.47;10.17;;;11.10;99.90;;;;;;5113965;28;20172;-80
2021/10/23 00:40:50;;;;;;;13.30;10.10;;;11.10;99.90;;;;;;5115523;28;20200;-80
2021/10/23 00:43:16;;;;;;;15.00;10.83;;;11.10;99.90;;;;;;5126190;27;20207;-79
2021/10/23 00:45:41;;;;;;;14.33;9.87;;;11.10;99.90;;;;;;5113593;28;20190;-79
2021/10/23 00:48:07;;;;;;;13.17;10.30;;;11.10;99.90;;;;;;5104869;28;20179;-81
2021/10/23 00:50:33;;;;;;;15.30;10.43;;;11.10;99.90;;;;;;5120371;28;20623;-80
2021/10/23 00:52:59;;;;;;;12.10;9.83;;;11.10;99.90;;;;;;5105262;27;20214;-81
2021/10/23 00:55:25;;;;;;;14.37;9.87;;;11.10;99.90;;;;;;5102351;28;20171;-80
2021/10/23 00:57:54;;;;;;;16.57;10.60;;;11.00;99.90;;;;;;5121292;27;20339;-79
2021/10/23 01:00:19;;;;;;;13.17;9.53;;;11.00;99.90;;;;;;5122344;27;20170;-80
2021/10/23 01:03:05;;;;;;;13.40;9.50;;;10.90;99.90;;;;;;5138796;27;20177;-81
2021/10/23 01:05:31;;;;;;;13.13;10.03;;;11.00;99.90;;;;;;5122740;27;20200;-80
2021/10/23 01:07:58;;;;;;;14.20;9.83;;;11.00;99.90;;;;;;5122794;27;20174;-80
2021/10/23 01:10:24;;;;;;;12.57;9.60;;;10.80;99.90;;;;;;5122199;27;20208;-80
2021/10/23 01:12:50;;;;;;;13.17;9.83;;;10.80;99.90;;;;;;5141768;27;20201;-80
2021/10/23 01:15:26;;;;;;;12.23;10.07;;;10.70;99.90;;;;;;5126792;27;20177;-81
2021/10/23 01:17:53;;;;;;;14.27;10.10;;;10.90;99.90;;;;;;5140761;27;20243;-81
2021/10/23 01:20:21;;;;;;;14.70;10.30;;;10.80;99.90;;;;;;5122590;27;20170;-80
2021/10/23 01:22:48;;;;;;;17.77;10.53;;;10.90;99.90;;;;;;5122744;27;20272;-80
2021/10/23 01:25:14;;;;;;;13.23;10.53;;;11.00;99.90;;;;;;5122176;27;20166;-80
2021/10/23 01:27:41;;;;;;;17.00;10.77;;;10.80;99.90;;;;;;5121906;27;20260;-80
2021/10/23 01:30:09;;;;;;;15.70;10.83;;;11.00;99.90;;;;;;5122953;27;20167;-80
2021/10/23 01:32:35;;;;;;;13.30;10.73;;;10.90;99.90;;;;;;5133420;27;20171;-80
2021/10/23 01:35:01;;;;;;;14.80;10.77;;;10.80;99.90;;;;;;5102320;28;20376;-80
2021/10/23 01:37:42;;;;;;;14.93;10.67;;;10.70;99.90;;;;;;5114596;28;20210;-80
2021/10/23 01:40:12;;;;;;;14.63;11.13;;;10.60;99.90;;;;;;5124650;28;20166;-79
2021/10/23 01:42:39;;;;;;;16.27;10.00;;;10.50;99.90;;;;;;5104997;28;20550;-80
2021/10/23 01:45:05;;;;;;;12.97;10.47;;;10.40;99.90;;;;;;5103987;28;20194;-81
2021/10/23 01:47:31;;;;;;;13.30;10.50;;;10.30;99.90;;;;;;5129378;28;20166;-80
2021/10/23 01:49:57;;;;;;;16.50;10.63;;;10.30;99.90;;;;;;5129659;27;20179;-81
2021/10/23 01:52:23;;;;;;;16.10;11.27;;;10.40;99.90;;;;;;5126234;28;20194;-78
2021/10/23 01:54:48;;;;;;;13.40;10.87;;;10.30;99.90;;;;;;5106971;28;20639;-81
2021/10/23 01:57:14;;;;;;;13.83;10.93;;;10.70;99.90;;;;;;5126805;28;20218;-78
2021/10/23 01:59:40;;;;;;;12.60;10.37;;;10.60;99.90;;;;;;5128032;28;20167;-81
2021/10/23 02:02:07;;;;;;;13.73;11.83;;;10.60;99.90;;;;;;5120250;28;20175;-80
2021/10/23 02:04:32;;;;;;;14.40;11.67;;;10.70;99.90;;;;;;5098720;28;20171;-82
2021/10/23 02:06:58;;;;;;;15.30;11.07;;;10.60;99.90;;;;;;5116417;28;20262;-79
2021/10/23 02:09:25;;;;;;;15.17;10.90;;;10.60;99.90;;;;;;5097561;28;20650;-80
2021/10/23 02:11:51;;;;;;;16.17;11.40;;;10.50;99.90;;;;;;5115285;28;20156;-79
2021/10/23 02:14:16;;;;;;;17.10;11.40;;;10.60;99.90;;;;;;5097736;28;20348;-79
2021/10/23 02:16:44;;;;;;;16.23;11.73;;;10.60;99.90;;;;;;5112887;28;20221;-79
2021/10/23 02:19:10;;;;;;;17.53;11.23;;;10.70;99.90;;;;;;5136997;28;20230;-78
2021/10/23 02:21:36;;;;;;;16.53;11.23;;;10.40;99.90;;;;;;5125880;28;20550;-80
2021/10/23 02:24:02;;;;;;;15.90;11.53;;;10.40;99.90;;;;;;5099015;28;20565;-80
2021/10/23 02:26:29;;;;;;;18.63;10.93;;;10.40;99.90;;;;;;5098355;28;20175;-80
2021/10/23 02:28:54;;;;;;;15.97;11.33;;;10.40;99.90;;;;;;5116197;28;20615;-80
2021/10/23 02:31:20;;;;;;;15.80;11.97;;;10.40;99.90;;;;;;5098084;28;20181;-80
2021/10/23 02:33:46;;;;;;;14.87;11.23;;;10.50;99.90;;;;;;5097212;28;20174;-80
2021/10/23 02:36:11;;;;;;;15.33;11.00;;;10.40;99.90;;;;;;5080689;28;20635;-80
2021/10/23 02:38:37;;;;;;;13.33;10.80;;;10.30;99.90;;;;;;5115114;28;20598;-80
2021/10/23 02:41:03;;;;;;;13.73;11.50;;;10.40;99.90;;;;;;5097439;28;20171;-79
2021/10/23 02:43:29;;;;;;;15.00;11.27;;;10.40;99.90;;;;;;5117092;28;20191;-80
2021/10/23 02:45:56;;;;;;;15.73;11.80;;;10.30;99.90;;;;;;5102475;28;20171;-81
2021/10/23 02:48:21;;;;;;;16.13;11.13;;;10.20;99.90;;;;;;5121877;28;20167;-80
2021/10/23 02:50:47;;;;;;;13.47;10.47;;;10.30;99.90;;;;;;5115355;28;20213;-80
2021/10/23 02:53:13;;;;;;;13.30;10.50;;;10.20;99.90;;;;;;5115467;28;20630;-80
2021/10/23 02:55:39;;;;;;;17.23;12.00;;;10.20;99.90;;;;;;5115278;28;20537;-80
2021/10/23 02:58:05;;;;;;;13.30;11.37;;;10.10;99.90;;;;;;5115259;28;20781;-81
2021/10/23 03:00:31;;;;;;;15.17;11.53;;;10.00;99.90;;;;;;5115190;28;20604;-80
2021/10/23 03:02:57;;;;;;;17.63;12.13;;;9.90;99.90;;;;;;5097011;28;20266;-80
2021/10/23 03:05:23;;;;;;;13.57;11.67;;;10.10;99.90;;;;;;5115063;28;20194;-80
2021/10/23 03:07:49;;;;;;;14.80;11.40;;;10.10;99.90;;;;;;5113392;28;20186;-80
2021/10/23 03:10:16;;;;;;;18.10;11.87;;;10.10;99.90;;;;;;5113995;28;20202;-81
2021/10/23 03:12:42;;;;;;;15.30;12.43;;;10.10;99.90;;;;;;5113864;28;20623;-81
2021/10/23 03:15:08;;;;;;;17.10;12.93;;;10.10;99.90;;;;;;5096769;28;20238;-80
2021/10/23 03:17:34;;;;;;;16.17;12.17;;;10.10;99.90;;;;;;5123102;28;20206;-79
2021/10/23 03:20:01;;;;;;;13.33;11.23;;;10.10;99.90;;;;;;5138266;28;20159;-79
2021/10/23 03:22:27;;;;;;;17.40;12.23;;;10.00;99.90;;;;;;5117997;28;20170;-79
2021/10/23 03:24:55;;;;;;;17.30;12.97;;;10.10;99.90;;;;;;5116047;28;20566;-80
2021/10/23 03:27:25;;;;;;;16.20;12.57;;;10.20;99.90;;;;;;5115629;28;20182;-79
2021/10/23 03:29:51;;;;;;;15.83;12.43;;;10.30;99.90;;;;;;5097201;28;20526;-80
2021/10/23 03:32:17;;;;;;;17.40;13.47;;;10.30;99.90;;;;;;5115325;28;20193;-80
2021/10/23 03:34:43;;;;;;;17.47;13.20;;;10.40;99.90;;;;;;5114005;28;20635;-80
2021/10/23 03:37:09;;;;;;;18.63;15.80;;;10.70;99.90;;;;;;5127216;28;20203;-78
2021/10/23 03:39:35;;;;;;;16.10;13.13;;;10.50;99.90;;;;;;5132572;28;20166;-77
2021/10/23 03:42:00;;;;;;;20.50;13.50;;;10.40;99.90;;;;;;5136176;28;20175;-77
2021/10/23 03:44:26;;;;;;;20.30;13.33;;;10.40;99.90;;;;;;5133288;28;20179;-79
2021/10/23 03:46:52;;;;;;;19.00;13.70;;;10.60;99.90;;;;;;5122549;28;20163;-79
2021/10/23 03:49:25;;;;;;;18.07;13.93;;;10.50;99.90;;;;;;5116964;28;20589;-79
2021/10/23 03:51:54;;;;;;;21.97;14.03;;;10.40;99.90;;;;;;5119516;28;20167;-79
2021/10/23 03:54:22;;;;;;;18.87;13.77;;;10.40;99.90;;;;;;5130463;28;20159;-79
2021/10/23 03:56:48;;;;;;;18.93;13.77;;;10.20;99.90;;;;;;5125887;28;20207;-79
2021/10/23 03:59:13;;;;;;;19.73;13.90;;;10.00;99.90;;;;;;5118991;28;20178;-79
2021/10/23 04:01:39;;;;;;;17.37;13.23;;;9.80;99.90;;;;;;5097733;28;20257;-80
2021/10/23 04:04:05;;;;;;;17.50;13.10;;;9.80;99.90;;;;;;5114246;28;20163;-80
2021/10/23 04:06:30;;;;;;;16.57;12.93;;;9.60;99.90;;;;;;5095799;28;20507;-80
2021/10/23 04:08:58;;;;;;;17.00;13.10;;;9.70;99.90;;;;;;5114132;28;20669;-80
2021/10/23 04:11:25;;;;;;;15.57;12.57;;;9.80;99.90;;;;;;5096104;28;20618;-80
2021/10/23 04:13:50;;;;;;;19.03;13.83;;;9.90;99.90;;;;;;5095913;28;20176;-80
2021/10/23 04:16:16;;;;;;;17.77;13.17;;;10.00;99.90;;;;;;5113450;28;20201;-80
2021/10/23 04:18:42;;;;;;;17.73;13.73;;;10.00;99.90;;;;;;5114287;28;20250;-79
2021/10/23 04:21:07;;;;;;;21.90;17.03;;;10.10;99.90;;;;;;5113857;28;20192;-78
2021/10/23 04:23:33;;;;;;;16.13;14.07;;;10.10;99.90;;;;;;5113841;28;20195;-78
2021/10/23 04:25:59;;;;;;;22.43;17.30;;;10.20;99.90;;;;;;5095566;28;20197;-79
2021/10/23 04:28:24;;;;;;;29.63;24.37;;;10.10;99.90;;;;;;5113776;28;20236;-79
2021/10/23 04:30:51;;;;;;;28.83;22.67;;;10.40;99.90;;;;;;5113870;28;20171;-78
2021/10/23 04:33:18;;;;;;;19.60;15.43;;;10.50;99.90;;;;;;5095298;28;20209;-81
2021/10/23 04:35:43;;;;;;;21.87;16.10;;;10.50;99.90;;;;;;5095363;28;20234;-79
2021/10/23 04:38:09;;;;;;;19.70;15.73;;;10.60;99.90;;;;;;5113555;28;20343;-79
2021/10/23 04:40:37;;;;;;;19.27;15.33;;;10.60;99.90;;;;;;5113293;28;20201;-79
2021/10/23 04:43:03;;;;;;;20.30;15.50;;;10.60;99.90;;;;;;5113550;28;20177;-79
2021/10/23 04:45:28;;;;;;;18.93;15.10;;;10.60;99.90;;;;;;5113463;28;20167;-79
2021/10/23 04:47:54;;;;;;;18.17;15.47;;;10.70;99.90;;;;;;5113466;28;20171;-80
2021/10/23 04:50:20;;;;;;;27.73;20.53;;;10.60;99.90;;;;;;5113453;28;20160;-79
2021/10/23 04:52:45;;;;;;;26.73;20.73;;;10.70;99.90;;;;;;5113543;28;20666;-81
2021/10/23 04:55:11;;;;;;;35.93;25.20;;;10.70;99.90;;;;;;5113199;28;20230;-78
2021/10/23 04:57:37;;;;;;;29.20;22.07;;;10.70;99.90;;;;;;5113319;28;20249;-79
2021/10/23 05:00:03;;;;;;;29.83;22.37;;;10.70;99.90;;;;;;5113328;28;20541;-80
2021/10/23 05:02:29;;;;;;;26.47;20.07;;;10.70;99.90;;;;;;5113334;28;20185;-80
2021/10/23 05:04:54;;;;;;;27.90;19.80;;;10.60;99.90;;;;;;5112723;28;20171;-80
2021/10/23 05:07:20;;;;;;;25.13;18.27;;;10.50;99.90;;;;;;5094774;28;20176;-80
2021/10/23 05:09:46;;;;;;;26.53;19.77;;;10.40;99.90;;;;;;5113283;28;20218;-80
2021/10/23 05:12:11;;;;;;;22.53;16.97;;;10.20;99.90;;;;;;5113199;28;20178;-79
2021/10/23 05:14:37;;;;;;;24.40;16.67;;;10.30;99.90;;;;;;5113040;28;20653;-80
2021/10/23 05:17:03;;;;;;;22.43;16.33;;;10.30;99.90;;;;;;5113268;28;20644;-80
2021/10/23 05:19:28;;;;;;;21.77;16.60;;;10.30;99.90;;;;;;5112966;28;20648;-80
2021/10/23 05:21:54;;;;;;;24.10;16.73;;;10.30;99.90;;;;;;5112875;28;20646;-79
2021/10/23 05:24:21;;;;;;;23.33;17.73;;;10.30;99.90;;;;;;5112414;28;20164;-80
2021/10/23 05:26:47;;;;;;;22.57;16.97;;;10.30;99.90;;;;;;5113320;28;20174;-78
2021/10/23 05:29:13;;;;;;;25.13;19.70;;;10.30;99.90;;;;;;5115796;28;20159;-80
2021/10/23 05:31:39;;;;;;;23.47;17.83;;;10.20;99.90;;;;;;5099121;28;20174;-79
2021/10/23 05:34:05;;;;;;;23.83;18.83;;;10.20;99.90;;;;;;5098713;28;20562;-80
2021/10/23 05:36:30;;;;;;;23.00;18.07;;;10.20;99.90;;;;;;5098925;28;20757;-80
2021/10/23 05:38:56;;;;;;;26.97;18.03;;;10.30;99.90;;;;;;5117447;28;20163;-79
2021/10/23 05:41:22;;;;;;;20.93;15.87;;;10.40;99.90;;;;;;5098826;28;20254;-79
2021/10/23 05:43:47;;;;;;;18.67;16.23;;;10.40;99.90;;;;;;5117337;28;20175;-79
2021/10/23 05:46:13;;;;;;;23.07;15.37;;;10.30;99.90;;;;;;5117916;28;20626;-80
2021/10/23 05:48:40;;;;;;;19.50;15.17;;;10.20;99.90;;;;;;5116784;28;20666;-79
2021/10/23 05:51:05;;;;;;;20.33;15.33;;;10.20;99.90;;;;;;5117469;28;20166;-80
2021/10/23 05:53:31;;;;;;;26.80;17.10;;;10.30;99.90;;;;;;5117089;28;20167;-79
2021/10/23 05:55:57;;;;;;;21.70;15.97;;;10.40;99.90;;;;;;5099900;28;20687;-79
2021/10/23 05:58:22;;;;;;;20.03;17.00;;;10.60;99.90;;;;;;5098343;28;20209;-79
2021/10/23 06:00:50;;;;;;;22.70;16.37;;;10.50;99.90;;;;;;5117233;28;20507;-79
2021/10/23 06:03:20;;;;;;;20.53;15.80;;;10.40;99.90;;;;;;5116587;28;20313;-80
2021/10/23 06:05:46;;;;;;;20.30;16.87;;;10.40;99.90;;;;;;5099537;28;20175;-79
2021/10/23 06:08:12;;;;;;;21.50;16.77;;;10.40;99.90;;;;;;5127737;28;20235;-79
2021/10/23 06:10:38;;;;;;;23.27;17.57;;;10.40;99.90;;;;;;5112431;28;20193;-81
2021/10/23 06:13:04;;;;;;;22.87;17.43;;;10.50;99.90;;;;;;5129845;28;20202;-78
2021/10/23 06:15:29;;;;;;;20.70;16.80;;;10.40;99.90;;;;;;5133061;28;20178;-79
2021/10/23 06:17:55;;;;;;;19.87;16.73;;;10.10;99.90;;;;;;5104091;28;20669;-80
2021/10/23 06:20:24;;;;;;;18.83;15.53;;;10.00;99.90;;;;;;5116543;28;20177;-81
2021/10/23 06:22:53;;;;;;;20.37;15.37;;;10.00;99.90;;;;;;5098212;28;20182;-80
2021/10/23 06:25:20;;;;;;;20.93;15.50;;;9.90;99.90;;;;;;5117575;28;20163;-80
2021/10/23 06:27:46;;;;;;;20.53;16.03;;;9.90;99.90;;;;;;5098581;28;20251;-80
2021/10/23 06:30:13;;;;;;;22.17;14.93;;;9.90;99.90;;;;;;5098703;28;20171;-81
2021/10/23 06:32:50;;;;;;;19.80;14.83;;;9.80;99.90;;;;;;5140284;27;20175;-80
2021/10/23 06:35:15;;;;;;;23.23;16.13;;;10.00;99.90;;;;;;5118149;28;20170;-81
2021/10/23 06:37:42;;;;;;;22.10;16.23;;;10.20;99.90;;;;;;5118106;28;20562;-79
2021/10/23 06:40:09;;;;;;;20.10;15.20;;;10.20;99.90;;;;;;5097733;28;20217;-79
2021/10/23 06:42:36;;;;;;;18.23;14.80;;;10.30;99.90;;;;;;5117967;28;20175;-80
2021/10/23 06:45:03;;;;;;;18.43;14.30;;;10.40;99.90;;;;;;5097762;28;20203;-79
2021/10/23 06:47:29;;;;;;;19.07;14.77;;;10.40;99.90;;;;;;5118379;28;20619;-80
2021/10/23 06:49:55;;;;;;;15.90;13.00;;;10.40;99.90;;;;;;5116693;28;20163;-81
2021/10/23 06:52:21;;;;;;;19.07;14.07;;;10.30;99.90;;;;;;5099899;28;20536;-80
2021/10/23 06:54:48;;;;;;;18.40;13.73;;;10.40;99.90;;;;;;5118418;28;20666;-79
2021/10/23 06:57:15;;;;;;;17.27;13.50;;;10.50;99.90;;;;;;5115399;28;20595;-80
2021/10/23 06:59:41;;;;;;;16.83;13.33;;;10.50;99.90;;;;;;5114750;28;20170;-79
2021/10/23 07:02:06;;;;;;;18.70;13.73;;;10.60;99.90;;;;;;5115177;28;20228;-79
2021/10/23 07:04:32;;;;;;;19.90;14.67;;;10.80;99.90;;;;;;5097027;28;20684;-80
2021/10/23 07:06:58;;;;;;;20.40;14.10;;;10.60;99.90;;;;;;5115902;28;20171;-80
2021/10/23 07:09:23;;;;;;;21.47;13.43;;;10.40;99.90;;;;;;5115789;28;20710;-81
2021/10/23 07:11:49;;;;;;;17.73;13.23;;;10.60;99.90;;;;;;5097785;28;20631;-79
2021/10/23 07:14:14;;;;;;;21.67;13.73;;;10.60;99.90;;;;;;5115261;28;20599;-80
2021/10/23 07:16:40;;;;;;;20.10;14.27;;;10.50;99.90;;;;;;5097379;28;20206;-82
2021/10/23 07:19:06;;;;;;;18.60;13.20;;;10.30;99.90;;;;;;5117388;28;20297;-80
2021/10/23 07:21:31;;;;;;;18.53;13.73;;;10.30;99.90;;;;;;5098026;28;20167;-80
2021/10/23 07:23:59;;;;;;;21.23;13.03;;;10.30;99.90;;;;;;5096388;28;20281;-80
2021/10/23 07:26:25;;;;;;;21.23;13.00;;;10.20;99.90;;;;;;5114757;28;20162;-79
2021/10/23 07:28:52;;;;;;;17.70;12.20;;;10.30;99.90;;;;;;5120873;28;20163;-79
2021/10/23 07:31:17;;;;;;;15.10;12.03;;;10.40;99.90;;;;;;5130566;28;20167;-80
2021/10/23 07:33:46;;;;;;;17.50;12.07;;;10.50;99.90;;;;;;5111520;28;20163;-79
2021/10/23 07:36:14;;;;;;;15.07;11.47;;;10.60;99.90;;;;;;5133492;28;20159;-81
2021/10/23 07:38:40;;;;;;;21.50;12.97;;;10.90;99.90;;;;;;5113647;28;20202;-81
2021/10/23 07:41:07;;;;;;;18.80;12.20;;;11.30;99.90;;;;;;5118632;28;20688;-81
2021/10/23 07:43:44;;;;;;;14.83;11.20;;;11.20;99.90;;;;;;5110311;28;20184;-81
2021/10/23 07:46:09;;;;;;;17.00;12.57;;;11.20;99.90;;;;;;5094694;28;20246;-81
2021/10/23 07:48:36;;;;;;;18.00;12.83;;;11.00;99.90;;;;;;5075334;28;20473;-79
2021/10/23 07:51:12;;;;;;;15.03;11.53;;;11.00;99.90;;;;;;5094353;28;20184;-80
2021/10/23 07:53:38;;;;;;;18.73;11.57;;;10.80;99.90;;;;;;5094917;28;20206;-79
2021/10/23 07:56:04;;;;;;;16.77;10.40;;;10.70;99.90;;;;;;5075823;28;20627;-80
2021/10/23 07:58:30;;;;;;;18.40;12.00;;;10.70;99.90;;;;;;5077107;28;20198;-78
2021/10/23 08:00:57;;;;;;;17.97;12.03;;;10.80;99.90;;;;;;5095919;28;20167;-79
2021/10/23 08:03:24;;;;;;;22.63;11.80;;;10.70;99.90;;;;;;5094635;28;20261;-79
2021/10/23 08:05:49;;;;;;;17.80;12.40;;;10.80;99.90;;;;;;5096792;28;20167;-80
2021/10/23 08:08:15;;;;;;;19.60;13.43;;;10.70;99.90;;;;;;5094842;28;20550;-79
2021/10/23 08:10:41;;;;;;;18.43;12.03;;;10.60;99.90;;;;;;5077969;28;20186;-79
2021/10/23 08:13:07;;;;;;;18.47;13.23;;;10.70;99.90;;;;;;5077302;28;20191;-80
2021/10/23 08:15:34;;;;;;;15.77;11.10;;;10.80;99.90;;;;;;5096694;28;20168;-80
2021/10/23 08:18:03;;;;;;;16.97;11.57;;;10.80;99.90;;;;;;5076271;28;20223;-79
2021/10/23 08:20:33;;;;;;;15.63;11.03;;;10.90;99.90;;;;;;5095341;28;20164;-78
2021/10/23 08:23:00;;;;;;;18.87;11.27;;;10.90;99.90;;;;;;5094251;28;20177;-78
2021/10/23 08:25:26;;;;;;;20.00;10.87;;;10.90;99.90;;;;;;5077267;28;20190;-80
2021/10/23 08:27:52;;;;;;;16.53;11.80;;;10.70;99.90;;;;;;5077730;28;20616;-79
2021/10/23 08:30:19;;;;;;;17.27;11.43;;;10.60;99.90;;;;;;5095904;28;20644;-81
2021/10/23 08:32:46;;;;;;;16.47;11.00;;;10.60;99.90;;;;;;5096924;28;20185;-79
2021/10/23 08:35:17;;;;;;;14.80;10.10;;;10.60;99.90;;;;;;5119800;27;20208;-80
2021/10/23 08:37:44;;;;;;;14.60;11.13;;;10.80;99.90;;;;;;5136204;27;20205;-81
2021/10/23 08:40:11;;;;;;;14.23;11.20;;;10.70;99.90;;;;;;5137373;27;20366;-80
2021/10/23 08:42:37;;;;;;;13.50;10.47;;;10.80;99.90;;;;;;5111866;28;20185;-80
2021/10/23 08:45:06;;;;;;;16.97;11.53;;;10.90;99.90;;;;;;5114199;28;20159;-80
2021/10/23 08:47:36;;;;;;;16.43;11.00;;;11.10;99.90;;;;;;5114619;28;20167;-80
2021/10/23 08:50:07;;;;;;;14.30;10.93;;;11.10;99.90;;;;;;5095739;28;20167;-82
2021/10/23 08:52:33;;;;;;;24.50;11.23;;;11.00;99.90;;;;;;5097200;28;20175;-81
2021/10/23 08:54:59;;;;;;;17.57;11.30;;;11.10;99.90;;;;;;5095071;28;20273;-81
2021/10/23 08:57:28;;;;;;;14.23;11.20;;;10.90;99.90;;;;;;5095828;28;20301;-80
2021/10/23 09:00:01;;;;;;;20.77;11.10;;;11.00;99.90;;;;;;5113230;28;20172;-81
2021/10/23 09:02:27;;;;;;;14.37;9.83;;;11.10;99.90;;;;;;5096773;28;20572;-80
2021/10/23 09:04:55;;;;;;;13.60;9.50;;;11.20;99.90;;;;;;5098812;28;20211;-81
2021/10/23 09:07:23;;;;;;;13.50;9.93;;;11.30;99.90;;;;;;5080229;28;20191;-79
2021/10/23 09:09:50;;;;;;;13.47;9.80;;;11.40;99.90;;;;;;5097246;28;20192;-82
2021/10/23 09:12:36;;;;;;;14.83;9.23;;;11.60;99.90;;;;;;5099187;28;20172;-78
2021/10/23 09:15:05;;;;;;;13.60;10.10;;;11.70;99.90;;;;;;5108260;28;20164;-79
2021/10/23 09:17:33;;;;;;;28.47;22.30;;;11.70;99.90;;;;;;5096090;28;20206;-81
2021/10/23 09:20:09;;;;;;;16.10;9.70;;;11.60;99.90;;;;;;5098768;28;20174;-78
2021/10/23 09:22:38;;;;;;;14.80;9.30;;;11.50;99.90;;;;;;5112965;28;20628;-79
2021/10/23 09:25:23;;;;;;;13.03;9.90;;;11.50;99.90;;;;;;5106140;28;20619;-81
2021/10/23 09:28:06;;;;;;;15.27;10.47;;;11.50;99.90;;;;;;5083425;28;20666;-81
2021/10/23 09:30:36;;;;;;;16.57;10.03;;;11.60;99.90;;;;;;5096921;28;20180;-80
2021/10/23 09:33:11;;;;;;;11.87;9.20;;;11.60;99.90;;;;;;5098159;28;20171;-80
2021/10/23 09:35:42;;;;;;;11.13;8.27;;;11.60;99.90;;;;;;5097322;28;20672;-81
2021/10/23 09:38:12;;;;;;;12.10;8.57;;;11.60;99.90;;;;;;5106653;27;20717;-82
2021/10/23 09:40:40;;;;;;;15.93;9.20;;;11.60;99.90;;;;;;5099205;28;20202;-79
2021/10/23 09:43:14;;;;;;;13.60;8.40;;;11.60;99.90;;;;;;5102359;28;20178;-79
2021/10/23 09:45:55;;;;;;;12.70;8.90;;;11.70;99.90;;;;;;5098260;28;20231;-81
2021/10/23 09:48:49;;;;;;;11.67;8.53;;;11.90;99.90;;;;;;5121289;28;20171;-78
2021/10/23 09:51:29;;;;;;;12.27;7.90;;;12.00;99.90;;;;;;5133965;28;20202;-81
2021/10/23 09:53:59;;;;;;;11.13;8.13;;;12.10;99.90;;;;;;5099376;28;20168;-80
2021/10/23 09:56:33;;;;;;;14.87;11.13;;;12.20;99.90;;;;;;5121532;28;20228;-79
2021/10/23 09:59:10;;;;;;;16.03;10.20;;;12.30;99.90;;;;;;5100006;28;20236;-80
2021/10/23 10:01:43;;;;;;;11.43;8.27;;;12.30;99.90;;;;;;5100809;28;20537;-80
2021/10/23 10:04:14;;;;;;;11.77;7.37;;;12.40;99.90;;;;;;5134076;27;20172;-80
2021/10/23 10:06:42;;;;;;;10.27;7.87;;;12.50;99.90;;;;;;5139952;27;20554;-82
2021/10/23 10:09:10;;;;;;;12.10;8.63;;;12.40;99.90;;;;;;5084601;28;20203;-80
2021/10/23 10:11:37;;;;;;;10.87;7.63;;;12.50;99.90;;;;;;5116173;27;20269;-82
2021/10/23 10:14:06;;;;;;;11.77;7.70;;;12.70;99.90;;;;;;5096206;28;20169;-81
2021/10/23 10:16:33;;;;;;;12.37;8.43;;;12.90;99.90;;;;;;5097035;28;20227;-80
2021/10/23 10:18:59;;;;;;;9.03;6.87;;;13.00;99.90;;;;;;5096011;28;20175;-80
2021/10/23 10:21:32;;;;;;;12.83;8.10;;;13.20;98.60;;;;;;5078473;28;20557;-80
2021/10/23 10:23:57;;;;;;;11.17;8.67;;;13.40;96.70;;;;;;5096961;28;20221;-80
2021/10/23 10:26:36;;;;;;;12.93;7.13;;;13.50;96.20;;;;;;5096340;28;20513;-79
2021/10/23 10:29:28;;;;;;;9.40;7.20;;;13.50;96.20;;;;;;5096556;28;20269;-80
2021/10/23 10:32:29;;;;;;;11.10;8.47;;;13.50;96.40;;;;;;5077498;28;20271;-79
2021/10/23 10:38:40;;;;;;;15.87;7.87;;;13.60;96.20;;;;;;5054253;28;20223;-78
2021/10/23 10:44:20;;;;;;;12.97;8.63;;;14.00;94.10;;;;;;5095804;28;20166;-80
2021/10/23 10:47:09;;;;;;;11.40;7.77;;;14.20;93.00;;;;;;5097284;28;20542;-82
2021/10/23 10:49:50;;;;;;;11.70;7.93;;;14.30;91.90;;;;;;5127403;28;20174;-79
2021/10/23 10:52:41;;;;;;;8.93;7.67;;;14.30;92.50;;;;;;5113370;28;20178;-80
2021/10/23 10:55:16;;;;;;;12.77;8.00;;;14.20;92.70;;;;;;5117984;28;20529;-80
2021/10/23 10:58:06;;;;;;;11.13;7.70;;;14.30;92.10;;;;;;5083554;28;20735;-80
2021/10/23 11:00:48;;;;;;;12.80;7.60;;;14.20;91.90;;;;;;5099749;28;20197;-82
2021/10/23 11:03:37;;;;;;;11.30;7.90;;;14.30;91.90;;;;;;5091175;28;20767;-82
2021/10/23 11:06:34;;;;;;;11.33;8.10;;;14.30;92.20;;;;;;5104316;28;20660;-80
2021/10/23 11:09:11;;;;;;;15.27;7.33;;;14.20;92.70;;;;;;5115679;28;20260;-82
2021/10/23 11:11:45;;;;;;;12.67;6.83;;;14.50;92.00;;;;;;5119318;28;20170;-81
2021/10/23 11:14:23;;;;;;;10.23;6.57;;;14.60;88.00;;;;;;5099739;28;20189;-81
2021/10/23 11:16:55;;;;;;;10.17;6.40;;;14.70;87.70;;;;;;5096861;28;20225;-83
2021/10/23 11:19:40;;;;;;;9.40;6.20;;;14.80;87.50;;;;;;5098120;28;20728;-80
2021/10/23 11:22:14;;;;;;;7.63;5.93;;;14.90;82.10;;;;;;5127170;28;20169;-81
2021/10/23 11:25:04;;;;;;;9.77;6.63;;;14.90;83.80;;;;;;5106468;28;20235;-82
2021/10/23 11:27:35;;;;;;;8.10;5.83;;;14.80;86.80;;;;;;5095979;28;20218;-81
2021/10/23 11:30:06;;;;;;;9.57;6.13;;;14.90;86.10;;;;;;5098339;28;20201;-82
2021/10/23 11:32:37;;;;;;;9.47;6.10;;;14.90;82.50;;;;;;5115059;28;20173;-81
2021/10/23 11:35:04;;;;;;;9.03;5.80;;;15.20;82.00;;;;;;5115157;28;20163;-81
2021/10/23 11:37:30;;;;;;;10.17;5.33;;;15.40;80.20;;;;;;5117135;28;20216;-81
2021/10/23 11:40:10;;;;;;;8.17;5.40;;;15.50;78.00;;;;;;5116647;28;20170;-80
2021/10/23 11:42:44;;;;;;;9.50;5.77;;;15.60;73.80;;;;;;5100938;28;20197;-80
2021/10/23 11:45:22;;;;;;;9.10;5.67;;;15.50;73.50;;;;;;5098678;27;20166;-80
2021/10/23 11:47:51;;;;;;;7.23;5.30;;;15.30;73.20;;;;;;5118494;27;20182;-82
2021/10/23 11:50:22;;;;;;;8.00;5.67;;;15.50;70.30;;;;;;5119250;27;20219;-81
2021/10/23 11:52:58;;;;;;;10.07;5.53;;;15.50;72.80;;;;;;5137243;27;20242;-81
2021/10/23 11:55:47;;;;;;;7.77;5.50;;;15.40;71.90;;;;;;5118541;27;20202;-81
2021/10/23 11:58:15;;;;;;;10.00;5.43;;;15.50;71.50;;;;;;5118809;27;20683;-81
2021/10/23 12:00:44;;;;;;;7.47;5.00;;;15.70;70.70;;;;;;5136723;27;20241;-81
2021/10/23 12:03:13;;;;;;;9.87;5.90;;;15.60;71.20;;;;;;5119170;27;20178;-82
2021/10/23 12:05:45;;;;;;;8.13;5.23;;;15.60;71.50;;;;;;5116723;27;20170;-82
2021/10/23 12:08:29;;;;;;;7.87;4.77;;;15.80;66.10;;;;;;5115191;27;20170;-82
2021/10/23 12:11:03;;;;;;;7.67;4.93;;;15.90;61.50;;;;;;5116736;27;20195;-81
2021/10/23 12:13:50;;;;;;;7.57;4.70;;;15.60;62.20;;;;;;5135618;27;20197;-80
2021/10/23 12:16:19;;;;;;;9.43;4.50;;;15.60;63.40;;;;;;5102574;27;20233;-81
2021/10/23 12:18:46;;;;;;;6.47;4.37;;;15.70;63.70;;;;;;5109218;28;20229;-80
2021/10/23 12:21:15;;;;;;;6.83;3.77;;;15.60;63.10;;;;;;5094394;28;20175;-82
2021/10/23 12:23:51;;;;;;;5.33;3.87;;;15.60;55.80;;;;;;5109623;28;20555;-81
2021/10/23 12:26:22;;;;;;;7.90;3.20;;;15.90;51.50;;;;;;5108699;28;20261;-80
2021/10/23 12:28:59;;;;;;;6.27;3.83;;;15.80;38.70;;;;;;5112076;27;20178;-81
2021/10/23 12:31:49;;;;;;;4.97;3.90;;;15.80;34.90;;;;;;5116437;27;20181;-80
2021/10/23 12:34:14;;;;;;;7.43;3.60;;;15.70;42.10;;;;;;5117111;27;20170;-81
2021/10/23 12:36:58;;;;;;;7.70;3.80;;;15.90;33.20;;;;;;5128659;27;20791;-80
2021/10/23 12:39:28;;;;;;;6.33;3.33;;;16.00;31.40;;;;;;5131914;28;20185;-82
2021/10/23 12:41:56;;;;;;;5.17;3.20;;;16.10;26.30;;;;;;5099736;28;20190;-80
2021/10/23 12:44:23;;;;;;;4.83;3.33;;;16.10;19.40;;;;;;5117462;28;20591;-81
2021/10/23 12:46:51;;;;;;;5.37;3.20;;;16.30;11.70;;;;;;5093964;28;20204;-81